Impacts METAR Board
IDs:

KORD - Chicago/O'Hare Intl, IL, US

Updated at: 0400 UTC 10 Dec 2018
Potential Impact None Slight Moderate High
Time 09/16Z 09/17Z 09/18Z 09/19Z 09/20Z 09/21Z 09/22Z 09/23Z 10/00Z 10/01Z 10/02Z 10/03Z 10/04Z
Temp26 30 30 32 34 34 32 29 25 24 22 22 20
Dewpt21 23 21 20 19 18 19 18 19 19 18 18 17
Altim30.40 30.39 30.36 30.34 30.32 30.31 30.31 30.30 30.31 30.32 30.32 30.31 30.30
VIS5 6 7 9 9 10 10 10 10 8 7 7 6
CIG14 -- -- -- -- -- -- -- -- -- -- -- --
CoverBKNSCTFEWFEWFEWFEWFEWFEWFEWFEWFEWFEWFEW
FltCatMVFRVFRVFRVFRVFRVFRVFRVFRVFRVFRVFRVFRVFR
WXHZHZ--------------------BR
WDir32000290300360340350350340330290310
WSpd5 3 0 7 5 5 3 5 7 7 5 3 5
WGst-- -- -- -- -- -- -- -- -- -- -- -- --
Raw hourly METARs
KORD 091551Z 32005KT 5SM HZ BKN014 M03/M06 A3040 RMK AO2 SLP306 T10331061 $
KORD 091651Z VRB03KT 6SM HZ SCT014 SCT180 M01/M05 A3039 RMK AO2 SLP300 T10111050 $
KORD 091751Z 00000KT 7SM FEW014 FEW180 M01/M06 A3036 RMK AO2 SLP290 T10111061 11011 21078 58014 $
KORD 091851Z 29007KT 9SM FEW014 FEW180 00/M07 A3034 RMK AO2 SLP283 T00001067 $
KORD 091951Z 30005KT 9SM FEW250 01/M07 A3032 RMK AO2 SLP276 T00111072 $
KORD 092051Z 36005KT 10SM FEW250 01/M08 A3031 RMK AO2 SLP274 T00111078 56015 $
KORD 092151Z 34003KT 10SM FEW250 00/M07 A3031 RMK AO2 SLP272 T00001072 $
KORD 092251Z 35005KT 10SM FEW250 M02/M08 A3030 RMK AO2 SLP270 T10171078 $
KORD 092351Z 35007KT 10SM FEW250 M04/M07 A3031 RMK AO2 SLP274 T10391072 10017 21039 55002 $
KORD 100051Z 34007KT 8SM FEW250 M04/M07 A3032 RMK AO2 SLP277 T10441072 $
KORD 100151Z 33005KT 7SM FEW009 M06/M08 A3032 RMK AO2 SLP278 T10561078 $
KORD 100251Z 29003KT 7SM FEW009 M06/M08 A3031 RMK AO2 SLP274 T10561078 50001 $
KORD 100351Z 31005KT 6SM BR FEW005 M07/M08 A3030 RMK AO2 SLP270 I1000 T10671083 $



Page loaded:  04:50 UTC  |   08:50 PM Pacific  |   09:50 PM Mountain  |   10:50 PM Central  |   11:50 PM Eastern

 

ADVISORIES

FORECASTS

FORECASTS

OBSERVATIONS

USER TOOLS

ABOUT US